Al Hoceima, Morocco
Current Conditions -  °F | °C
As of 8:00 AM on Friday 31 Oct 2014 (Local Time) from GMTA Reporting Station
Few Clouds Few Clouds  
Wind Chill: 59°   Ceiling: Unl
Heat Index: 59°   Visibility: 5mi
Dew Point: 55°   Wind: 5mph
Humidity: 88%   Direction: 180°S
Pressure: 30.15"   Gusts: NA
Location:  35.26°N, 3.94°W
Report Text: GMTA 310700Z 18004KT 8000 FEW016 15/13 Q1021 NOSIG
Loading
Personal Weather Stations






























Interactive Weather Map
Tropical Storm Tracking
New forecast layout! Learn more

10-Day Weather Forecast

Advertisements
Track Severe Weather on mobile